KIZA

Santa Ynez Airport

Santa Ynez, California, USA
METAR KIZA 210355Z AUTO 24006KT 10SM CLR 16/13 A2994 RMK AO2
Observed Flight Rules
Aug-21 @ 03:55 UTC (16 minutes ago) Visual Flight Rules
Wind Visibility Clouds
240° at 6 knots 10 miles
  • Clear skies
Temperatures Readings
Current 16°C / 61°F
Dewpoint 13°C / 55°F
Humidity 83%
Altimeter 29.94" Hg
Pressure 1014 hPa
Elevation 205
METAR KIZA 210355Z AUTO 24006KT 10SM CLR 16/13 A2994 RMK AO2
Observed Flight Rules
Aug-21 @ 03:55 UTC
(16 minutes ago)
VFR
Wind Visibility
240° at 6 knots 10 miles
Clouds
  • Clear skies
Temperature Dewpoint
16°C / 61°F 13°C / 55°F
Humidity Altimeter Pressure
83% 29.94" Hg 1014 hPa